Time;durP1;ratioP1;P1;durP2;ratioP2;P2;SDS_P1;SDS_P2;PMS_P1;PMS_P2;Temp;Humidity;BMP_temperature;BMP_pressure;BME280_temperature;BME280_humidity;BME280_pressure;Samples;Min_cycle;Max_cycle;Signal;HPM_P1;HPM_P2
2023/10/14 00:02:24;;;;;;;19.35;5.20;;;18.20;99.90;;;;;;5008061;28;20403;-64
2023/10/14 00:04:53;;;;;;;16.55;5.45;;;18.20;99.90;;;;;;5010518;28;20033;-64
2023/10/14 00:07:20;;;;;;;12.55;4.30;;;18.20;99.90;;;;;;5006035;28;20021;-64
2023/10/14 00:09:50;;;;;;;12.32;4.28;;;18.20;99.90;;;;;;5006893;28;20488;-64
2023/10/14 00:12:15;;;;;;;9.48;4.10;;;18.30;99.90;;;;;;5010961;28;20018;-64
2023/10/14 00:14:43;;;;;;;10.45;5.07;;;18.30;99.90;;;;;;5010149;28;20040;-65
2023/10/14 00:17:14;;;;;;;18.30;5.25;;;18.20;99.90;;;;;;5012311;28;20018;-64
2023/10/14 00:19:40;;;;;;;9.85;4.75;;;18.30;99.90;;;;;;5010051;28;20049;-64
2023/10/14 00:22:07;;;;;;;12.38;4.80;;;18.30;99.90;;;;;;5008491;28;20581;-65
2023/10/14 00:24:33;;;;;;;15.70;5.05;;;18.30;99.90;;;;;;5007794;28;20030;-64
2023/10/14 00:26:58;;;;;;;15.40;4.78;;;18.30;99.90;;;;;;5007262;28;20480;-64
2023/10/14 00:29:29;;;;;;;16.58;4.90;;;18.30;99.90;;;;;;5012540;28;20033;-64
2023/10/14 00:31:54;;;;;;;11.57;5.68;;;18.20;99.90;;;;;;5011587;28;20112;-64
2023/10/14 00:34:22;;;;;;;15.73;4.60;;;18.20;99.90;;;;;;5012470;28;20519;-65
2023/10/14 00:36:49;;;;;;;15.15;4.95;;;18.30;99.90;;;;;;5009722;28;20023;-65
2023/10/14 00:39:22;;;;;;;13.77;4.78;;;18.30;99.90;;;;;;5009232;28;20064;-64
2023/10/14 00:41:52;;;;;;;11.68;4.47;;;18.30;99.90;;;;;;5007942;28;20482;-64
2023/10/14 00:44:19;;;;;;;12.10;4.28;;;18.30;99.90;;;;;;4996919;28;20023;-65
2023/10/14 00:46:48;;;;;;;21.90;5.75;;;18.30;99.90;;;;;;5007637;28;20018;-64
2023/10/14 00:49:21;;;;;;;17.95;5.55;;;18.40;99.90;;;;;;5008576;28;20482;-64
2023/10/14 00:51:49;;;;;;;11.20;4.43;;;18.40;99.90;;;;;;5011094;28;20029;-64
2023/10/14 00:54:58;;;;;;;9.85;3.90;;;18.40;99.90;;;;;;5008720;28;20082;-64
2023/10/14 00:57:20;;;;;;;21.42;4.45;;;18.40;99.90;;;;;;5004977;28;20435;-68
2023/10/14 00:59:50;;;;;;;13.40;3.35;;;18.40;99.90;;;;;;5006366;28;20018;-63
2023/10/14 01:02:29;;;;;;;13.13;3.75;;;18.50;99.90;;;;;;5010764;28;20545;-64
2023/10/14 01:04:55;;;;;;;11.20;4.15;;;18.50;99.90;;;;;;5008170;28;20035;-65
2023/10/14 01:07:21;;;;;;;12.82;3.42;;;18.50;99.90;;;;;;5012209;28;20117;-64
2023/10/14 01:12:37;;;;;;;13.68;3.65;;;18.50;99.90;;;;;;5014978;28;20387;-64
2023/10/14 01:15:11;;;;;;;11.30;3.53;;;18.50;99.90;;;;;;5007692;28;20056;-64
2023/10/14 01:17:36;;;;;;;14.43;4.18;;;18.50;99.90;;;;;;5012626;28;20030;-64
2023/10/14 01:22:54;;;;;;;14.10;3.70;;;18.50;99.90;;;;;;5010095;28;20030;-64
2023/10/14 01:25:24;;;;;;;7.25;3.10;;;18.50;99.90;;;;;;5004104;28;20435;-65
2023/10/14 01:27:50;;;;;;;4.90;2.75;;;18.50;99.90;;;;;;5010462;28;20026;-64
2023/10/14 01:30:20;;;;;;;12.70;3.50;;;18.50;99.90;;;;;;5012271;28;20025;-64
2023/10/14 01:37:57;;;;;;;11.90;3.63;;;18.40;99.90;;;;;;5011366;28;20022;-64
2023/10/14 01:42:58;;;;;;;7.40;2.40;;;18.40;99.90;;;;;;5012350;28;20026;-64
2023/10/14 01:45:35;;;;;;;12.55;3.45;;;18.40;99.90;;;;;;5011676;28;20304;-64
2023/10/14 01:50:46;;;;;;;8.73;3.08;;;18.20;99.90;;;;;;5007406;28;20099;-64
2023/10/14 01:53:23;;;;;;;10.00;3.40;;;18.10;99.90;;;;;;5011912;28;20072;-64
2023/10/14 01:55:52;;;;;;;9.07;3.03;;;17.90;99.90;;;;;;5011522;28;20025;-64
2023/10/14 01:58:22;;;;;;;7.50;2.90;;;17.60;99.90;;;;;;5008902;28;20392;-64
2023/10/14 02:00:53;;;;;;;8.95;2.42;;;17.40;99.90;;;;;;5014919;28;20484;-64
2023/10/14 02:03:23;;;;;;;8.50;2.75;;;17.30;99.90;;;;;;5012312;28;20034;-64
2023/10/14 02:05:52;;;;;;;4.55;2.30;;;17.20;99.90;;;;;;5011187;28;20030;-65
2023/10/14 02:08:21;;;;;;;13.90;3.30;;;17.10;99.90;;;;;;5006010;28;20022;-63
2023/10/14 02:10:51;;;;;;;7.05;2.20;;;17.00;99.90;;;;;;5006498;28;20156;-64
2023/10/14 02:13:20;;;;;;;7.95;2.40;;;16.90;99.90;;;;;;5014524;28;20041;-64
2023/10/14 02:15:46;;;;;;;7.97;2.55;;;16.80;99.90;;;;;;5010525;28;20026;-64
2023/10/14 02:18:23;;;;;;;7.82;2.40;;;16.70;99.90;;;;;;5015291;28;20072;-64
2023/10/14 02:21:04;;;;;;;12.90;2.78;;;16.50;99.90;;;;;;5010073;28;20083;-64
2023/10/14 02:23:44;;;;;;;10.75;2.45;;;16.50;99.90;;;;;;4999038;28;20128;-64
2023/10/14 02:26:51;;;;;;;7.57;2.25;;;16.40;99.90;;;;;;5008857;28;20038;-64
2023/10/14 02:29:10;;;;;;;6.18;2.47;;;16.30;99.90;;;;;;5006384;28;20402;-64
2023/10/14 02:31:36;;;;;;;10.32;2.80;;;16.30;99.90;;;;;;5011759;28;20030;-64
2023/10/14 02:34:05;;;;;;;8.75;2.25;;;16.20;99.90;;;;;;5012021;28;20142;-64
2023/10/14 02:36:35;;;;;;;12.45;2.35;;;16.20;99.90;;;;;;5010472;28;20028;-64
2023/10/14 02:39:02;;;;;;;12.40;2.55;;;16.20;99.90;;;;;;5002377;28;20018;-64
2023/10/14 02:41:31;;;;;;;4.82;2.22;;;16.20;99.90;;;;;;5004130;28;20030;-64
2023/10/14 02:46:33;;;;;;;4.63;1.67;;;16.10;99.90;;;;;;5007082;28;20580;-64
2023/10/14 02:49:06;;;;;;;5.00;2.10;;;16.10;99.90;;;;;;5014361;28;20041;-64
2023/10/14 02:54:15;;;;;;;8.63;2.25;;;16.10;99.90;;;;;;5003054;28;20022;-64
2023/10/14 02:59:20;;;;;;;2.47;1.58;;;16.30;99.90;;;;;;5004194;28;20033;-64
2023/10/14 03:04:45;;;;;;;1.25;0.50;;;15.60;99.90;;;;;;5011646;28;20036;-64
2023/10/14 03:07:13;;;;;;;1.13;0.70;;;15.20;99.90;;;;;;5014138;28;20039;-64
2023/10/14 03:09:41;;;;;;;0.93;0.68;;;14.90;99.90;;;;;;5009815;28;20082;-64
2023/10/14 03:12:06;;;;;;;3.10;0.80;;;14.60;99.90;;;;;;5007823;28;20030;-64
2023/10/14 03:14:38;;;;;;;1.95;0.60;;;14.40;99.90;;;;;;5009363;28;20026;-64
2023/10/14 03:17:06;;;;;;;0.88;0.60;;;14.30;99.90;;;;;;5011018;28;20018;-64
2023/10/14 03:19:32;;;;;;;0.40;0.40;;;14.20;99.90;;;;;;5017177;28;20033;-64
2023/10/14 03:21:58;;;;;;;1.38;0.45;;;14.10;99.90;;;;;;5011409;28;20038;-64
2023/10/14 03:24:30;;;;;;;1.30;0.70;;;14.10;99.90;;;;;;5012627;28;20622;-64
2023/10/14 03:27:03;;;;;;;1.25;0.50;;;14.00;99.90;;;;;;5011462;28;20482;-64
2023/10/14 03:29:29;;;;;;;0.90;0.70;;;14.00;99.90;;;;;;5012662;28;20113;-64
2023/10/14 03:31:55;;;;;;;0.80;0.80;;;14.00;99.90;;;;;;5010251;28;20037;-65
2023/10/14 03:34:29;;;;;;;1.00;0.80;;;14.00;99.90;;;;;;5011033;28;20495;-64
2023/10/14 03:37:00;;;;;;;1.35;0.75;;;14.00;99.90;;;;;;5015376;28;20026;-64
2023/10/14 03:39:40;;;;;;;1.05;0.77;;;14.00;99.90;;;;;;5010801;28;20040;-64
2023/10/14 03:42:10;;;;;;;1.75;0.70;;;13.90;99.90;;;;;;5014377;28;20108;-64
2023/10/14 03:44:41;;;;;;;3.17;0.95;;;13.80;99.90;;;;;;5013698;28;20057;-64
2023/10/14 03:47:16;;;;;;;2.22;0.85;;;13.80;99.90;;;;;;5019396;28;20037;-65
2023/10/14 03:49:47;;;;;;;1.52;0.82;;;13.80;99.90;;;;;;5005389;28;20036;-64
2023/10/14 03:52:13;;;;;;;24.13;0.90;;;13.70;99.90;;;;;;5013363;28;20076;-64
2023/10/14 03:54:42;;;;;;;1.35;1.10;;;13.60;99.90;;;;;;5011825;28;20026;-65
2023/10/14 03:57:20;;;;;;;1.55;0.98;;;13.50;99.90;;;;;;5011956;28;20491;-64
2023/10/14 03:59:48;;;;;;;1.17;1.00;;;13.60;99.90;;;;;;5014919;28;22002;-64
2023/10/14 04:02:24;;;;;;;1.58;0.95;;;13.50;99.90;;;;;;5013289;28;20380;-64
2023/10/14 04:04:57;;;;;;;1.67;1.10;;;13.60;99.90;;;;;;5017967;28;20112;-64
2023/10/14 04:07:28;;;;;;;2.15;1.10;;;13.50;99.90;;;;;;5007293;28;20454;-64
2023/10/14 04:09:58;;;;;;;1.60;0.73;;;13.60;99.90;;;;;;5012929;28;20038;-64
2023/10/14 04:12:30;;;;;;;2.42;0.60;;;13.60;99.90;;;;;;5012225;28;20041;-64
2023/10/14 04:14:57;;;;;;;2.38;0.70;;;13.60;99.90;;;;;;5011065;28;20048;-64
2023/10/14 04:17:30;;;;;;;4.03;0.80;;;13.50;99.90;;;;;;5011017;28;20021;-64
2023/10/14 04:20:46;;;;;;;1.08;0.70;;;13.40;99.90;;;;;;5010809;28;20479;-64
2023/10/14 04:22:45;;;;;;;1.35;0.60;;;13.40;99.90;;;;;;5008125;28;20423;-64
2023/10/14 04:30:38;;;;;;;0.85;0.80;;;13.20;99.90;;;;;;5013118;28;20034;-64
2023/10/14 04:33:29;;;;;;;1.40;0.98;;;13.10;99.90;;;;;;5009609;28;20053;-64
2023/10/14 04:36:09;;;;;;;7.35;1.38;;;13.00;99.90;;;;;;5012077;28;20072;-64
2023/10/14 04:38:42;;;;;;;11.80;1.52;;;12.90;99.90;;;;;;5012154;28;20137;-64
2023/10/14 04:41:14;;;;;;;15.77;2.15;;;12.80;99.90;;;;;;5009197;28;20057;-64
2023/10/14 04:44:00;;;;;;;5.85;1.42;;;12.60;99.90;;;;;;5010011;28;20021;-64
2023/10/14 04:46:46;;;;;;;7.55;1.40;;;12.40;99.90;;;;;;5009908;28;20530;-64
2023/10/14 04:49:15;;;;;;;11.20;1.60;;;12.20;99.90;;;;;;5008636;28;20026;-64
2023/10/14 04:51:47;;;;;;;15.18;2.92;;;12.20;99.90;;;;;;5027307;28;20490;-64
2023/10/14 04:54:19;;;;;;;17.00;2.65;;;12.20;99.90;;;;;;5007337;28;20034;-64
2023/10/14 04:56:45;;;;;;;11.45;1.67;;;12.10;99.90;;;;;;5009236;28;20037;-65
2023/10/14 04:59:12;;;;;;;8.13;1.70;;;12.10;99.90;;;;;;5012607;28;20380;-64
2023/10/14 05:01:41;;;;;;;14.43;2.05;;;12.00;99.90;;;;;;5011882;28;20041;-64
2023/10/14 05:04:08;;;;;;;6.47;1.73;;;12.00;99.90;;;;;;5012433;28;20025;-64
2023/10/14 05:06:40;;;;;;;9.07;1.75;;;12.00;99.90;;;;;;5012411;28;20640;-64
2023/10/14 05:09:11;;;;;;;10.18;1.92;;;12.00;99.90;;;;;;5015785;28;20037;-64
2023/10/14 05:11:37;;;;;;;7.00;1.63;;;12.00;99.90;;;;;;5012050;28;20040;-64
2023/10/14 05:14:08;;;;;;;7.57;1.98;;;12.00;99.90;;;;;;5012265;28;20022;-64
2023/10/14 05:16:55;;;;;;;10.55;1.60;;;12.00;99.90;;;;;;5011844;28;20038;-65
2023/10/14 05:19:24;;;;;;;9.63;1.60;;;12.00;99.90;;;;;;5012676;28;20040;-64
2023/10/14 05:21:57;;;;;;;9.57;2.25;;;12.00;99.90;;;;;;5011798;28;20084;-64
2023/10/14 05:24:23;;;;;;;11.43;1.93;;;12.00;99.90;;;;;;5009825;28;20079;-65
2023/10/14 05:26:58;;;;;;;13.80;1.88;;;12.00;99.90;;;;;;5009969;28;20487;-65
2023/10/14 05:29:26;;;;;;;5.65;1.85;;;12.00;99.90;;;;;;5009082;28;20104;-64
2023/10/14 05:31:52;;;;;;;11.90;3.20;;;12.00;99.90;;;;;;5006516;28;20064;-64
2023/10/14 05:34:24;;;;;;;5.68;1.95;;;12.00;99.90;;;;;;5008186;28;20083;-64
2023/10/14 05:36:55;;;;;;;14.02;2.20;;;11.90;99.90;;;;;;5013498;28;20018;-64
2023/10/14 05:39:21;;;;;;;13.50;2.15;;;12.00;99.90;;;;;;5007619;28;20068;-63
2023/10/14 05:41:58;;;;;;;13.07;1.75;;;12.00;99.90;;;;;;5007951;28;20119;-64
2023/10/14 05:44:29;;;;;;;8.00;1.60;;;11.90;99.90;;;;;;5006215;28;20037;-64
2023/10/14 05:46:55;;;;;;;11.05;1.77;;;11.90;99.90;;;;;;5009409;28;20038;-64
2023/10/14 05:49:24;;;;;;;7.65;1.83;;;11.90;99.90;;;;;;5010059;28;20041;-64
2023/10/14 05:51:53;;;;;;;7.60;1.55;;;11.80;99.90;;;;;;5014991;28;20033;-65
2023/10/14 05:54:22;;;;;;;6.30;1.50;;;11.70;99.90;;;;;;5009782;28;20108;-64
2023/10/14 05:56:51;;;;;;;10.23;2.30;;;11.70;99.90;;;;;;5010022;28;20033;-64
2023/10/14 05:59:17;;;;;;;11.70;2.38;;;11.70;99.90;;;;;;5012803;28;20036;-64
2023/10/14 06:01:46;;;;;;;14.48;2.08;;;11.60;99.90;;;;;;5010486;28;20041;-64
2023/10/14 06:04:15;;;;;;;18.10;2.05;;;11.50;99.90;;;;;;5014077;28;20492;-64
2023/10/14 06:06:41;;;;;;;10.70;2.22;;;11.50;99.90;;;;;;5012189;28;20049;-65
2023/10/14 06:09:08;;;;;;;10.02;1.50;;;11.50;99.90;;;;;;5009187;28;20033;-64
2023/10/14 06:11:34;;;;;;;9.43;1.65;;;11.40;99.90;;;;;;5010192;28;20120;-64
2023/10/14 06:14:02;;;;;;;9.38;2.10;;;11.30;99.90;;;;;;5012492;28;20113;-64
2023/10/14 06:16:29;;;;;;;15.30;1.88;;;11.30;99.90;;;;;;5013935;28;20022;-64
2023/10/14 06:18:56;;;;;;;10.80;2.53;;;11.30;99.90;;;;;;5012364;28;20029;-64
2023/10/14 06:21:27;;;;;;;13.32;3.40;;;11.30;99.90;;;;;;5013925;28;20028;-64
2023/10/14 06:23:53;;;;;;;12.85;2.00;;;11.20;99.90;;;;;;5007133;28;20117;-64
2023/10/14 06:26:19;;;;;;;15.05;2.30;;;11.20;99.90;;;;;;5006880;28;20030;-64
2023/10/14 06:28:49;;;;;;;7.88;1.65;;;11.20;99.90;;;;;;5006529;28;20271;-64
2023/10/14 06:31:18;;;;;;;13.00;2.28;;;11.20;99.90;;;;;;5010063;28;20034;-64
2023/10/14 06:33:44;;;;;;;10.02;1.92;;;11.20;99.90;;;;;;5009160;28;20029;-64
2023/10/14 06:36:14;;;;;;;11.77;2.05;;;11.20;99.90;;;;;;5012753;28;20482;-64
2023/10/14 06:38:46;;;;;;;13.85;2.28;;;11.30;99.90;;;;;;5010854;28;20399;-64
2023/10/14 06:41:16;;;;;;;8.75;2.10;;;11.30;99.90;;;;;;5011429;28;20034;-64
2023/10/14 06:43:43;;;;;;;14.88;2.33;;;11.30;99.90;;;;;;5011003;28;20026;-64
2023/10/14 06:46:11;;;;;;;14.13;2.35;;;11.40;99.90;;;;;;5007982;28;20034;-64
2023/10/14 06:48:38;;;;;;;27.60;4.32;;;11.40;99.90;;;;;;5027103;28;20046;-64
2023/10/14 06:51:04;;;;;;;11.43;2.03;;;11.40;99.90;;;;;;5013968;28;20033;-64
2023/10/14 06:53:29;;;;;;;12.68;2.28;;;11.40;99.90;;;;;;5015204;28;20030;-64
2023/10/14 06:55:56;;;;;;;16.08;2.45;;;11.50;99.90;;;;;;5009964;28;20407;-65
2023/10/14 06:58:22;;;;;;;8.75;2.25;;;11.50;99.90;;;;;;5013224;28;20152;-64
2023/10/14 07:00:48;;;;;;;15.65;2.17;;;11.60;99.90;;;;;;5013434;28;20496;-64
2023/10/14 07:03:14;;;;;;;8.07;2.03;;;11.70;99.90;;;;;;5019275;28;20534;-63
2023/10/14 07:05:46;;;;;;;17.50;2.67;;;11.70;99.90;;;;;;5017129;28;20034;-63
2023/10/14 07:08:13;;;;;;;19.08;2.25;;;11.70;99.90;;;;;;5017318;28;20017;-64
2023/10/14 07:10:39;;;;;;;6.80;1.70;;;11.80;99.90;;;;;;5015720;28;20395;-64
2023/10/14 07:13:05;;;;;;;16.85;2.80;;;11.90;99.90;;;;;;5013727;28;20049;-64
2023/10/14 07:15:35;;;;;;;8.73;1.55;;;12.00;99.90;;;;;;5009099;28;20107;-64
2023/10/14 07:18:01;;;;;;;17.17;2.40;;;12.10;99.90;;;;;;5011440;28;20033;-64
2023/10/14 07:20:30;;;;;;;10.75;2.17;;;12.20;99.90;;;;;;5014489;28;20029;-64
2023/10/14 07:22:58;;;;;;;10.27;2.20;;;12.30;99.90;;;;;;5011632;28;20050;-65
2023/10/14 07:25:24;;;;;;;18.75;2.50;;;12.30;99.90;;;;;;5016535;28;20022;-64
2023/10/14 07:27:51;;;;;;;11.80;2.30;;;12.40;99.90;;;;;;5014431;28;20442;-63
2023/10/14 07:30:18;;;;;;;11.30;2.70;;;12.50;99.90;;;;;;5013001;28;20496;-64
2023/10/14 07:32:45;;;;;;;8.93;1.63;;;12.50;99.90;;;;;;5013818;28;20045;-64
2023/10/14 07:35:15;;;;;;;14.57;3.00;;;12.60;99.90;;;;;;5012396;28;20056;-65
2023/10/14 07:37:45;;;;;;;14.80;2.40;;;12.70;99.90;;;;;;5012443;28;20041;-64
2023/10/14 07:40:22;;;;;;;13.40;2.75;;;12.70;99.90;;;;;;5010282;28;20036;-64
2023/10/14 07:42:56;;;;;;;17.05;2.40;;;12.80;99.90;;;;;;5007779;28;20025;-64
2023/10/14 07:45:22;;;;;;;;;;;12.90;99.90;;;;;;5012102;28;20032;-63
2023/10/14 07:47:48;;;;;;;13.45;2.53;;;13.00;99.90;;;;;;5008635;28;19945;-64
2023/10/14 07:50:15;;;;;;;13.57;2.30;;;13.10;99.90;;;;;;5013915;28;20057;-64
2023/10/14 07:52:41;;;;;;;16.05;2.28;;;13.10;99.90;;;;;;5013010;28;20062;-64
2023/10/14 07:55:15;;;;;;;9.00;1.95;;;13.10;99.90;;;;;;5018687;28;20021;-64
2023/10/14 07:57:41;;;;;;;8.48;2.97;;;13.20;99.90;;;;;;5011437;28;20376;-64
2023/10/14 08:00:12;;;;;;;16.45;2.33;;;13.10;99.90;;;;;;5013398;28;20036;-64
2023/10/14 08:02:38;;;;;;;11.93;2.33;;;13.10;99.90;;;;;;5025949;28;20491;-64
2023/10/14 08:05:05;;;;;;;8.70;1.80;;;12.90;99.90;;;;;;5010077;28;20040;-64
2023/10/14 08:07:33;;;;;;;12.23;1.73;;;12.90;99.90;;;;;;5021609;28;20104;-64
2023/10/14 08:10:16;;;;;;;8.50;2.50;;;13.10;99.90;;;;;;5010007;28;20448;-64
2023/10/14 08:12:45;;;;;;;11.60;1.93;;;13.20;99.90;;;;;;5013291;28;20061;-64
2023/10/14 08:15:12;;;;;;;10.45;2.13;;;13.40;99.90;;;;;;5012387;28;20049;-65
2023/10/14 08:17:39;;;;;;;11.32;2.55;;;13.60;99.90;;;;;;5013195;28;20030;-64
2023/10/14 08:20:12;;;;;;;8.60;2.33;;;13.60;99.90;;;;;;5014147;28;20037;-64
2023/10/14 08:22:46;;;;;;;7.20;3.00;;;13.70;99.90;;;;;;5014817;28;20038;-64
2023/10/14 08:25:12;;;;;;;11.75;2.40;;;13.80;99.90;;;;;;5011238;28;20069;-64
2023/10/14 08:27:40;;;;;;;9.30;2.30;;;13.60;99.90;;;;;;5014394;28;20033;-64
2023/10/14 08:30:11;;;;;;;13.85;2.15;;;13.60;99.90;;;;;;5010997;28;20154;-64
2023/10/14 08:32:40;;;;;;;17.38;2.50;;;13.50;99.90;;;;;;5012198;28;20026;-64
2023/10/14 08:35:17;;;;;;;12.30;2.65;;;13.50;99.90;;;;;;5011759;28;20376;-64
2023/10/14 08:37:48;;;;;;;12.00;2.10;;;13.30;99.90;;;;;;5003271;28;20023;-64
2023/10/14 08:40:19;;;;;;;12.82;3.13;;;13.40;99.90;;;;;;5003588;28;20421;-63
2023/10/14 08:43:06;;;;;;;11.43;2.80;;;13.50;99.90;;;;;;5010865;28;20034;-64
2023/10/14 08:45:39;;;;;;;11.38;2.80;;;13.80;99.90;;;;;;4974983;28;20042;-64
2023/10/14 08:48:06;;;;;;;9.80;2.75;;;14.00;99.90;;;;;;5013821;28;20046;-64
2023/10/14 08:50:33;;;;;;;8.18;2.47;;;14.30;99.90;;;;;;5013137;28;20128;-64
2023/10/14 08:53:03;;;;;;;7.95;2.28;;;14.30;99.90;;;;;;5011875;28;20403;-64
2023/10/14 08:55:32;;;;;;;8.50;2.58;;;14.20;99.90;;;;;;5006338;28;20486;-64
2023/10/14 08:58:01;;;;;;;11.48;2.35;;;14.30;99.90;;;;;;5012366;28;20033;-64
2023/10/14 09:00:29;;;;;;;11.68;2.10;;;14.20;99.90;;;;;;5009829;28;20022;-65
2023/10/14 09:02:57;;;;;;;8.00;1.98;;;14.20;99.90;;;;;;5018604;28;20029;-64
2023/10/14 09:05:26;;;;;;;11.13;1.83;;;14.10;99.90;;;;;;5011826;28;20057;-64
2023/10/14 09:07:54;;;;;;;10.90;2.28;;;14.10;99.90;;;;;;5014088;28;20495;-64
2023/10/14 09:10:20;;;;;;;10.50;2.00;;;14.20;99.90;;;;;;5011253;28;20049;-64
2023/10/14 09:12:55;;;;;;;24.50;3.30;;;14.30;99.90;;;;;;5015995;28;20498;-64
2023/10/14 09:15:21;;;;;;;9.48;2.38;;;14.50;99.90;;;;;;5007471;28;20427;-64
2023/10/14 09:17:47;;;;;;;10.10;1.73;;;14.40;99.90;;;;;;5015619;28;20109;-64
2023/10/14 09:20:32;;;;;;;7.38;2.20;;;14.30;99.90;;;;;;5015644;28;20031;-64
2023/10/14 09:23:16;;;;;;;11.68;1.98;;;14.40;99.90;;;;;;5008673;28;20092;-64
2023/10/14 09:25:58;;;;;;;8.07;1.73;;;14.50;99.90;;;;;;5002248;28;20026;-64
2023/10/14 09:28:28;;;;;;;10.18;2.08;;;14.40;99.90;;;;;;5004472;28;20066;-63
2023/10/14 09:30:56;;;;;;;7.55;2.22;;;14.50;99.90;;;;;;5011121;28;20058;-64
2023/10/14 09:33:31;;;;;;;9.63;2.25;;;14.80;99.90;;;;;;5010984;28;20378;-63
2023/10/14 09:36:02;;;;;;;10.02;2.25;;;15.30;99.90;;;;;;5010736;28;20028;-64
2023/10/14 09:38:28;;;;;;;8.02;2.08;;;15.30;99.90;;;;;;5011541;28;20022;-64
2023/10/14 09:40:59;;;;;;;15.75;2.67;;;15.80;99.90;;;;;;5009300;28;20080;-64
2023/10/14 09:43:26;;;;;;;14.23;2.10;;;15.80;99.90;;;;;;5008499;28;20026;-64
2023/10/14 09:45:57;;;;;;;11.85;2.72;;;16.10;99.90;;;;;;5000837;28;20484;-64
2023/10/14 09:48:25;;;;;;;11.48;2.58;;;16.20;99.90;;;;;;5014026;28;20056;-64
2023/10/14 09:50:54;;;;;;;8.77;1.70;;;16.40;99.90;;;;;;5006460;28;20036;-64
2023/10/14 09:53:26;;;;;;;8.32;2.03;;;16.60;99.90;;;;;;5008362;28;20022;-64
2023/10/14 09:55:57;;;;;;;9.00;2.70;;;16.90;99.90;;;;;;5014319;28;20084;-64
2023/10/14 09:58:26;;;;;;;9.05;1.88;;;17.20;99.90;;;;;;5008174;28;20026;-64
2023/10/14 10:00:52;;;;;;;8.48;1.48;;;17.40;99.90;;;;;;5013586;28;20026;-64
2023/10/14 10:03:19;;;;;;;12.13;2.08;;;17.40;99.90;;;;;;5009017;28;20534;-64
2023/10/14 10:06:10;;;;;;;11.60;3.15;;;17.40;99.90;;;;;;5011803;28;20018;-64
2023/10/14 10:08:56;;;;;;;11.77;2.17;;;16.70;99.90;;;;;;5010363;28;20511;-63
2023/10/14 10:11:23;;;;;;;8.52;1.85;;;16.40;99.90;;;;;;5013901;28;20446;-64
2023/10/14 10:13:53;;;;;;;10.77;1.80;;;16.20;99.90;;;;;;5015203;28;20033;-63
2023/10/14 10:16:22;;;;;;;10.38;1.80;;;16.00;99.90;;;;;;5009751;28;20026;-64
2023/10/14 10:18:57;;;;;;;8.70;1.60;;;15.90;99.90;;;;;;5011933;28;20026;-64
2023/10/14 10:21:29;;;;;;;17.45;2.75;;;15.50;99.90;;;;;;5008432;28;20018;-64
2023/10/14 10:24:09;;;;;;;9.88;1.75;;;15.30;99.90;;;;;;5019434;28;20161;-64
2023/10/14 10:26:57;;;;;;;11.00;2.55;;;15.00;99.90;;;;;;5012928;28;20026;-64
2023/10/14 10:29:22;;;;;;;16.75;2.35;;;14.80;99.90;;;;;;5008407;28;20522;-63
2023/10/14 10:32:08;;;;;;;9.07;2.08;;;14.50;99.90;;;;;;5010146;28;20058;-64
2023/10/14 10:34:33;;;;;;;10.82;1.75;;;14.30;99.90;;;;;;5006373;28;20026;-63
2023/10/14 10:37:03;;;;;;;21.83;3.53;;;14.10;99.90;;;;;;5011850;28;20025;-65
2023/10/14 10:39:31;;;;;;;11.63;1.98;;;14.30;99.90;;;;;;5008407;28;20135;-65
2023/10/14 10:41:57;;;;;;;10.57;1.63;;;14.50;99.90;;;;;;5014948;28;20033;-65
2023/10/14 10:44:29;;;;;;;7.47;2.13;;;14.90;99.90;;;;;;5007154;28;20037;-64
2023/10/14 10:46:56;;;;;;;12.40;2.28;;;15.20;99.90;;;;;;5013613;28;20044;-64
2023/10/14 10:49:59;;;;;;;11.95;2.10;;;15.50;99.90;;;;;;5007715;28;20479;-65
2023/10/14 10:52:28;;;;;;;7.82;2.22;;;15.70;99.90;;;;;;5013488;28;20042;-65
2023/10/14 10:54:55;;;;;;;13.48;2.20;;;16.20;99.90;;;;;;4992382;28;20046;-64
2023/10/14 10:57:21;;;;;;;6.72;1.83;;;16.40;99.90;;;;;;5009387;28;20050;-63
2023/10/14 10:59:47;;;;;;;7.18;1.38;;;16.60;99.90;;;;;;5013051;28;20053;-64
2023/10/14 11:02:15;;;;;;;6.35;1.50;;;16.60;99.90;;;;;;5012567;28;20026;-64
2023/10/14 11:04:42;;;;;;;11.13;2.38;;;16.70;99.90;;;;;;5013215;28;20022;-64
2023/10/14 11:07:11;;;;;;;12.52;2.03;;;17.00;99.90;;;;;;5012509;28;20395;-65
2023/10/14 11:09:39;;;;;;;15.45;2.13;;;16.90;99.90;;;;;;5007342;28;22357;-65
2023/10/14 11:12:13;;;;;;;12.52;1.90;;;16.80;99.90;;;;;;5012155;28;20041;-64
2023/10/14 11:14:39;;;;;;;9.10;2.38;;;16.90;99.90;;;;;;5007969;28;20428;-64
2023/10/14 11:17:06;;;;;;;7.85;1.67;;;17.20;99.90;;;;;;5017204;28;20164;-64
2023/10/14 11:19:32;;;;;;;15.25;2.17;;;17.20;99.90;;;;;;5008871;28;20133;-65
2023/10/14 11:21:59;;;;;;;7.53;2.25;;;17.10;99.90;;;;;;5010609;28;20025;-65
2023/10/14 11:24:30;;;;;;;7.32;1.48;;;16.90;99.90;;;;;;5005593;28;20040;-65
2023/10/14 11:26:57;;;;;;;7.57;1.65;;;16.60;99.40;;;;;;5008240;28;20515;-64
2023/10/14 11:29:27;;;;;;;7.05;2.70;;;16.20;99.90;;;;;;5001465;28;20468;-64
2023/10/14 11:31:59;;;;;;;11.30;1.90;;;15.90;99.90;;;;;;5011123;28;20042;-64
2023/10/14 11:34:32;;;;;;;9.98;1.70;;;15.50;99.90;;;;;;5015862;28;20021;-64
2023/10/14 11:36:58;;;;;;;11.50;3.45;;;15.30;99.90;;;;;;5018021;28;20033;-64
2023/10/14 11:39:24;;;;;;;15.40;2.10;;;15.30;99.90;;;;;;5008944;28;20022;-64
2023/10/14 11:41:50;;;;;;;5.97;1.50;;;15.20;99.90;;;;;;5015709;28;20084;-64
2023/10/14 11:44:19;;;;;;;10.07;1.77;;;15.00;99.90;;;;;;5012437;28;20031;-64
2023/10/14 11:46:45;;;;;;;8.93;1.73;;;14.90;99.90;;;;;;5008896;28;20034;-64
2023/10/14 11:49:12;;;;;;;9.02;2.40;;;14.80;99.90;;;;;;5014493;28;20031;-64
2023/10/14 11:51:43;;;;;;;9.90;1.92;;;14.60;99.90;;;;;;5015708;28;20042;-64
2023/10/14 11:54:12;;;;;;;8.85;1.52;;;14.40;99.90;;;;;;4999643;28;20383;-65
2023/10/14 11:56:42;;;;;;;7.95;1.40;;;14.10;99.90;;;;;;5012088;28;20041;-65
2023/10/14 11:59:08;;;;;;;9.85;1.50;;;13.90;99.90;;;;;;5015416;28;20033;-64
2023/10/14 12:01:34;;;;;;;13.70;2.55;;;13.80;99.90;;;;;;5010999;28;20029;-64
2023/10/14 12:04:03;;;;;;;10.05;2.10;;;13.90;99.90;;;;;;5012158;28;20553;-64
2023/10/14 12:06:30;;;;;;;5.50;1.50;;;13.90;99.90;;;;;;5014434;28;20112;-64
2023/10/14 12:08:56;;;;;;;6.97;2.88;;;14.00;99.90;;;;;;4996778;28;20611;-65
2023/10/14 12:11:22;;;;;;;13.65;2.90;;;14.10;99.90;;;;;;5024278;28;20024;-64
2023/10/14 12:13:48;;;;;;;14.00;2.53;;;14.20;99.90;;;;;;5028216;28;20026;-64
2023/10/14 12:16:14;;;;;;;11.65;2.08;;;14.30;99.90;;;;;;5028594;28;20041;-65
2023/10/14 12:18:42;;;;;;;11.70;1.80;;;14.20;99.90;;;;;;5024020;28;20037;-64
2023/10/14 12:21:07;;;;;;;5.55;1.60;;;14.20;99.90;;;;;;5026759;28;20556;-64
2023/10/14 12:23:33;;;;;;;5.90;1.40;;;14.20;99.90;;;;;;5029372;28;20030;-64
2023/10/14 12:26:00;;;;;;;13.00;1.80;;;14.30;99.90;;;;;;5025886;28;20040;-64
2023/10/14 12:28:30;;;;;;;12.60;2.40;;;14.40;99.90;;;;;;5030005;28;20049;-64
2023/10/14 12:30:58;;;;;;;4.38;1.55;;;14.40;99.90;;;;;;5032329;28;20048;-67
2023/10/14 12:33:31;;;;;;;4.70;1.65;;;14.50;99.90;;;;;;5030226;28;20040;-64
2023/10/14 12:35:57;;;;;;;11.85;1.85;;;14.60;99.90;;;;;;5038134;28;20095;-64
2023/10/14 12:38:26;;;;;;;10.63;1.88;;;14.90;99.90;;;;;;5032937;28;20060;-64
2023/10/14 12:40:53;;;;;;;7.57;1.85;;;14.90;99.90;;;;;;5025410;28;20323;-65
2023/10/14 12:43:28;;;;;;;7.55;1.48;;;14.90;99.90;;;;;;5032172;28;20026;-65
2023/10/14 12:46:09;;;;;;;14.02;2.25;;;14.80;99.90;;;;;;5029425;28;20025;-65
2023/10/14 12:48:39;;;;;;;12.50;2.75;;;14.70;99.90;;;;;;5032426;28;20116;-64
2023/10/14 12:51:07;;;;;;;14.02;1.67;;;14.60;99.90;;;;;;5038304;28;20067;-65
2023/10/14 12:53:33;;;;;;;9.38;2.70;;;14.60;99.90;;;;;;5017563;28;20540;-65
2023/10/14 12:55:59;;;;;;;7.07;1.77;;;14.60;99.90;;;;;;5008801;28;20029;-64
2023/10/14 12:58:25;;;;;;;10.88;2.05;;;14.50;99.90;;;;;;5012435;28;20503;-65
2023/10/14 13:00:50;;;;;;;6.30;1.30;;;14.30;99.90;;;;;;5012639;28;20029;-64
2023/10/14 13:03:17;;;;;;;3.85;0.93;;;14.20;98.80;;;;;;5010896;28;20399;-65
2023/10/14 13:05:46;;;;;;;6.65;1.58;;;14.10;99.70;;;;;;5010143;28;20030;-64
2023/10/14 13:08:18;;;;;;;5.57;1.23;;;13.90;99.00;;;;;;5001482;28;20025;-65
2023/10/14 13:10:45;;;;;;;6.38;1.50;;;13.70;99.60;;;;;;5005229;28;20029;-65
2023/10/14 13:13:12;;;;;;;6.15;1.58;;;13.60;99.90;;;;;;5010831;28;20562;-65
2023/10/14 13:15:38;;;;;;;5.00;1.92;;;13.50;99.90;;;;;;5003426;28;20467;-65
2023/10/14 13:18:12;;;;;;;2.63;1.30;;;13.40;99.90;;;;;;5010863;28;20511;-65
2023/10/14 13:20:38;;;;;;;16.23;1.80;;;13.30;99.90;;;;;;5012173;28;20037;-65
2023/10/14 13:23:08;;;;;;;8.15;1.52;;;13.30;99.90;;;;;;5010905;28;20033;-65
2023/10/14 13:25:36;;;;;;;7.30;2.05;;;13.30;99.90;;;;;;5010004;28;20053;-65
2023/10/14 13:28:08;;;;;;;8.18;1.50;;;13.40;99.90;;;;;;5010771;28;20507;-65
2023/10/14 13:30:34;;;;;;;5.30;1.65;;;13.60;99.90;;;;;;5011804;28;20038;-65